sensor_id;sensor_type;location;lat;lon;timestamp;temperature;humidity
15630;DHT22;7914;50.842;0.166;2022-10-26T00:00:01;16.30;99.90
15630;DHT22;7914;50.842;0.166;2022-10-26T00:02:27;16.20;99.90
15630;DHT22;7914;50.842;0.166;2022-10-26T00:04:53;16.20;99.90
15630;DHT22;7914;50.842;0.166;2022-10-26T00:07:18;16.30;99.90
15630;DHT22;7914;50.842;0.166;2022-10-26T00:09:44;16.30;99.90
15630;DHT22;7914;50.842;0.166;2022-10-26T00:12:10;16.30;99.90
15630;DHT22;7914;50.842;0.166;2022-10-26T00:14:35;16.30;99.90
15630;DHT22;7914;50.842;0.166;2022-10-26T00:17:01;16.30;99.90
15630;DHT22;7914;50.842;0.166;2022-10-26T00:19:27;16.20;99.90
15630;DHT22;7914;50.842;0.166;2022-10-26T00:21:52;16.30;99.90
15630;DHT22;7914;50.842;0.166;2022-10-26T00:24:18;16.30;99.90
15630;DHT22;7914;50.842;0.166;2022-10-26T00:26:44;16.30;99.90
15630;DHT22;7914;50.842;0.166;2022-10-26T00:29:11;16.30;99.90
15630;DHT22;7914;50.842;0.166;2022-10-26T00:31:37;16.30;99.90
15630;DHT22;7914;50.842;0.166;2022-10-26T00:34:03;16.30;99.90
15630;DHT22;7914;50.842;0.166;2022-10-26T00:36:29;16.30;99.90
15630;DHT22;7914;50.842;0.166;2022-10-26T00:38:55;16.30;99.90
15630;DHT22;7914;50.842;0.166;2022-10-26T00:41:27;16.30;99.90
15630;DHT22;7914;50.842;0.166;2022-10-26T00:43:54;16.40;99.90
15630;DHT22;7914;50.842;0.166;2022-10-26T00:46:35;16.40;99.90
15630;DHT22;7914;50.842;0.166;2022-10-26T00:49:07;16.40;99.90
15630;DHT22;7914;50.842;0.166;2022-10-26T00:51:44;16.40;99.90
15630;DHT22;7914;50.842;0.166;2022-10-26T00:54:15;16.50;99.90
15630;DHT22;7914;50.842;0.166;2022-10-26T00:56:46;16.60;99.90
15630;DHT22;7914;50.842;0.166;2022-10-26T00:59:14;16.50;99.90
15630;DHT22;7914;50.842;0.166;2022-10-26T01:01:43;16.60;99.90
15630;DHT22;7914;50.842;0.166;2022-10-26T01:04:11;16.60;99.90
15630;DHT22;7914;50.842;0.166;2022-10-26T01:06:37;16.60;99.90
15630;DHT22;7914;50.842;0.166;2022-10-26T01:09:03;16.50;99.90
15630;DHT22;7914;50.842;0.166;2022-10-26T01:11:29;16.60;99.90
15630;DHT22;7914;50.842;0.166;2022-10-26T01:13:56;16.50;99.90
15630;DHT22;7914;50.842;0.166;2022-10-26T01:21:38;16.50;99.90
15630;DHT22;7914;50.842;0.166;2022-10-26T01:29:24;16.50;99.90
15630;DHT22;7914;50.842;0.166;2022-10-26T01:31:59;16.50;99.90
15630;DHT22;7914;50.842;0.166;2022-10-26T01:34:34;16.50;99.90
15630;DHT22;7914;50.842;0.166;2022-10-26T01:37:18;16.50;99.90
15630;DHT22;7914;50.842;0.166;2022-10-26T01:39:57;16.50;99.90
15630;DHT22;7914;50.842;0.166;2022-10-26T01:42:27;16.40;99.90
15630;DHT22;7914;50.842;0.166;2022-10-26T01:45:01;16.40;99.90
15630;DHT22;7914;50.842;0.166;2022-10-26T01:47:29;16.30;99.90
15630;DHT22;7914;50.842;0.166;2022-10-26T01:49:57;16.30;99.90
15630;DHT22;7914;50.842;0.166;2022-10-26T01:52:25;16.40;99.90
15630;DHT22;7914;50.842;0.166;2022-10-26T01:54:51;16.40;99.90
15630;DHT22;7914;50.842;0.166;2022-10-26T01:57:18;16.30;99.90
15630;DHT22;7914;50.842;0.166;2022-10-26T02:00:08;16.30;99.90
15630;DHT22;7914;50.842;0.166;2022-10-26T02:11:00;16.30;99.90
15630;DHT22;7914;50.842;0.166;2022-10-26T02:13:39;16.30;99.90
15630;DHT22;7914;50.842;0.166;2022-10-26T02:16:24;16.20;99.90
15630;DHT22;7914;50.842;0.166;2022-10-26T02:21:48;16.20;99.90
15630;DHT22;7914;50.842;0.166;2022-10-26T02:24:16;16.10;99.90
15630;DHT22;7914;50.842;0.166;2022-10-26T02:26:45;16.10;99.90
15630;DHT22;7914;50.842;0.166;2022-10-26T02:29:15;16.10;99.90
15630;DHT22;7914;50.842;0.166;2022-10-26T02:31:42;16.10;99.90
15630;DHT22;7914;50.842;0.166;2022-10-26T02:34:11;16.10;99.90
15630;DHT22;7914;50.842;0.166;2022-10-26T02:36:42;16.10;99.90
15630;DHT22;7914;50.842;0.166;2022-10-26T02:39:10;16.20;99.90
15630;DHT22;7914;50.842;0.166;2022-10-26T02:41:38;16.10;99.90
15630;DHT22;7914;50.842;0.166;2022-10-26T02:44:19;16.20;99.90
15630;DHT22;7914;50.842;0.166;2022-10-26T02:46:46;16.10;99.90
15630;DHT22;7914;50.842;0.166;2022-10-26T02:49:12;16.20;99.90
15630;DHT22;7914;50.842;0.166;2022-10-26T02:51:45;16.20;99.90
15630;DHT22;7914;50.842;0.166;2022-10-26T02:54:33;16.10;99.90
15630;DHT22;7914;50.842;0.166;2022-10-26T02:57:14;16.10;99.90
15630;DHT22;7914;50.842;0.166;2022-10-26T02:59:44;16.10;99.90
15630;DHT22;7914;50.842;0.166;2022-10-26T03:02:13;16.10;99.90
15630;DHT22;7914;50.842;0.166;2022-10-26T03:04:40;16.00;99.90
15630;DHT22;7914;50.842;0.166;2022-10-26T03:07:06;16.00;99.90
15630;DHT22;7914;50.842;0.166;2022-10-26T03:09:32;16.00;99.90
15630;DHT22;7914;50.842;0.166;2022-10-26T03:11:57;16.00;99.90
15630;DHT22;7914;50.842;0.166;2022-10-26T03:14:23;15.90;99.90
15630;DHT22;7914;50.842;0.166;2022-10-26T03:16:48;15.90;99.90
15630;DHT22;7914;50.842;0.166;2022-10-26T03:19:14;15.90;99.90
15630;DHT22;7914;50.842;0.166;2022-10-26T03:21:40;15.90;99.90
15630;DHT22;7914;50.842;0.166;2022-10-26T03:24:07;15.80;99.90
15630;DHT22;7914;50.842;0.166;2022-10-26T03:26:33;15.80;99.90
15630;DHT22;7914;50.842;0.166;2022-10-26T03:28:59;15.70;99.90
15630;DHT22;7914;50.842;0.166;2022-10-26T03:31:24;15.80;99.90
15630;DHT22;7914;50.842;0.166;2022-10-26T03:33:50;15.70;99.90
15630;DHT22;7914;50.842;0.166;2022-10-26T03:36:15;15.70;99.90
15630;DHT22;7914;50.842;0.166;2022-10-26T03:38:41;15.70;99.90
15630;DHT22;7914;50.842;0.166;2022-10-26T03:41:07;15.70;99.90
15630;DHT22;7914;50.842;0.166;2022-10-26T03:43:32;15.80;99.90
15630;DHT22;7914;50.842;0.166;2022-10-26T03:45:58;15.90;99.90
15630;DHT22;7914;50.842;0.166;2022-10-26T03:48:24;15.90;99.90
15630;DHT22;7914;50.842;0.166;2022-10-26T03:50:49;15.90;99.90
15630;DHT22;7914;50.842;0.166;2022-10-26T03:53:15;16.00;99.90
15630;DHT22;7914;50.842;0.166;2022-10-26T03:55:43;16.10;99.90
15630;DHT22;7914;50.842;0.166;2022-10-26T03:58:09;16.20;99.90
15630;DHT22;7914;50.842;0.166;2022-10-26T04:00:35;16.20;99.90
15630;DHT22;7914;50.842;0.166;2022-10-26T04:03:00;16.30;99.90
15630;DHT22;7914;50.842;0.166;2022-10-26T04:05:27;16.30;99.90
15630;DHT22;7914;50.842;0.166;2022-10-26T04:08:01;16.30;99.90
15630;DHT22;7914;50.842;0.166;2022-10-26T04:10:30;16.40;99.90
15630;DHT22;7914;50.842;0.166;2022-10-26T04:12:56;16.40;99.90
15630;DHT22;7914;50.842;0.166;2022-10-26T04:15:23;16.40;99.90
15630;DHT22;7914;50.842;0.166;2022-10-26T04:17:57;16.40;99.90
15630;DHT22;7914;50.842;0.166;2022-10-26T04:20:24;16.50;99.90
15630;DHT22;7914;50.842;0.166;2022-10-26T04:22:58;16.50;99.90
15630;DHT22;7914;50.842;0.166;2022-10-26T04:25:24;16.50;99.90
15630;DHT22;7914;50.842;0.166;2022-10-26T04:27:50;16.50;99.90
15630;DHT22;7914;50.842;0.166;2022-10-26T04:30:17;16.40;99.90
15630;DHT22;7914;50.842;0.166;2022-10-26T04:32:43;16.50;99.90
15630;DHT22;7914;50.842;0.166;2022-10-26T04:35:08;16.50;99.90
15630;DHT22;7914;50.842;0.166;2022-10-26T04:37:34;16.40;99.90
15630;DHT22;7914;50.842;0.166;2022-10-26T04:39:59;16.30;99.90
15630;DHT22;7914;50.842;0.166;2022-10-26T04:42:25;16.20;99.90
15630;DHT22;7914;50.842;0.166;2022-10-26T04:44:51;16.10;99.90
15630;DHT22;7914;50.842;0.166;2022-10-26T04:47:16;16.10;99.90
15630;DHT22;7914;50.842;0.166;2022-10-26T04:49:42;16.00;99.90
15630;DHT22;7914;50.842;0.166;2022-10-26T04:52:08;15.90;99.90
15630;DHT22;7914;50.842;0.166;2022-10-26T04:54:33;15.90;99.90
15630;DHT22;7914;50.842;0.166;2022-10-26T04:56:59;15.90;99.90
15630;DHT22;7914;50.842;0.166;2022-10-26T04:59:25;15.90;99.90
15630;DHT22;7914;50.842;0.166;2022-10-26T05:01:50;15.90;99.90
15630;DHT22;7914;50.842;0.166;2022-10-26T05:04:16;15.80;99.90
15630;DHT22;7914;50.842;0.166;2022-10-26T05:06:42;15.80;99.90
15630;DHT22;7914;50.842;0.166;2022-10-26T05:09:07;15.80;99.90
15630;DHT22;7914;50.842;0.166;2022-10-26T05:11:33;15.80;99.90
15630;DHT22;7914;50.842;0.166;2022-10-26T05:13:59;15.80;99.90
15630;DHT22;7914;50.842;0.166;2022-10-26T05:16:24;16.00;99.90
15630;DHT22;7914;50.842;0.166;2022-10-26T05:18:50;16.00;99.90
15630;DHT22;7914;50.842;0.166;2022-10-26T05:21:16;16.00;99.90
15630;DHT22;7914;50.842;0.166;2022-10-26T05:23:53;16.10;99.90
15630;DHT22;7914;50.842;0.166;2022-10-26T05:26:21;16.20;99.90
15630;DHT22;7914;50.842;0.166;2022-10-26T05:28:47;16.20;99.90
15630;DHT22;7914;50.842;0.166;2022-10-26T05:31:12;16.20;99.90
15630;DHT22;7914;50.842;0.166;2022-10-26T05:33:38;16.30;99.90
15630;DHT22;7914;50.842;0.166;2022-10-26T05:36:05;16.20;99.90
15630;DHT22;7914;50.842;0.166;2022-10-26T05:38:31;16.20;99.90
15630;DHT22;7914;50.842;0.166;2022-10-26T05:40:57;16.30;99.90
15630;DHT22;7914;50.842;0.166;2022-10-26T05:43:24;16.20;99.90
15630;DHT22;7914;50.842;0.166;2022-10-26T05:45:52;16.20;99.90
15630;DHT22;7914;50.842;0.166;2022-10-26T05:48:18;16.10;99.90
15630;DHT22;7914;50.842;0.166;2022-10-26T05:50:44;16.00;99.90
15630;DHT22;7914;50.842;0.166;2022-10-26T05:53:10;16.00;99.90
15630;DHT22;7914;50.842;0.166;2022-10-26T05:55:36;15.90;99.90
15630;DHT22;7914;50.842;0.166;2022-10-26T05:58:02;15.90;99.90
15630;DHT22;7914;50.842;0.166;2022-10-26T06:00:28;15.90;99.90
15630;DHT22;7914;50.842;0.166;2022-10-26T06:03:17;16.00;99.90
15630;DHT22;7914;50.842;0.166;2022-10-26T06:05:52;16.00;99.90
15630;DHT22;7914;50.842;0.166;2022-10-26T06:08:20;16.10;99.90
15630;DHT22;7914;50.842;0.166;2022-10-26T06:10:46;16.10;99.90
15630;DHT22;7914;50.842;0.166;2022-10-26T06:13:13;16.10;99.90
15630;DHT22;7914;50.842;0.166;2022-10-26T06:18:45;16.20;99.90
15630;DHT22;7914;50.842;0.166;2022-10-26T06:29:39;16.20;99.90
15630;DHT22;7914;50.842;0.166;2022-10-26T06:32:08;16.20;99.90
15630;DHT22;7914;50.842;0.166;2022-10-26T06:34:35;16.20;99.90
15630;DHT22;7914;50.842;0.166;2022-10-26T06:37:03;16.10;99.90
15630;DHT22;7914;50.842;0.166;2022-10-26T06:39:30;16.10;99.90
15630;DHT22;7914;50.842;0.166;2022-10-26T06:42:00;16.10;99.90
15630;DHT22;7914;50.842;0.166;2022-10-26T06:44:26;16.10;99.90
15630;DHT22;7914;50.842;0.166;2022-10-26T06:49:57;16.00;99.90
15630;DHT22;7914;50.842;0.166;2022-10-26T06:52:36;15.90;99.90
15630;DHT22;7914;50.842;0.166;2022-10-26T06:55:04;15.90;99.90
15630;DHT22;7914;50.842;0.166;2022-10-26T06:57:37;15.80;99.90
15630;DHT22;7914;50.842;0.166;2022-10-26T07:00:07;15.80;99.90
15630;DHT22;7914;50.842;0.166;2022-10-26T07:02:38;15.80;99.90
15630;DHT22;7914;50.842;0.166;2022-10-26T07:05:04;15.80;99.90
15630;DHT22;7914;50.842;0.166;2022-10-26T07:07:30;15.80;99.90
15630;DHT22;7914;50.842;0.166;2022-10-26T07:09:56;15.80;99.90
15630;DHT22;7914;50.842;0.166;2022-10-26T07:12:21;15.90;99.90
15630;DHT22;7914;50.842;0.166;2022-10-26T07:14:48;15.90;99.90
15630;DHT22;7914;50.842;0.166;2022-10-26T07:17:14;15.90;99.90
15630;DHT22;7914;50.842;0.166;2022-10-26T07:19:41;15.90;99.90
15630;DHT22;7914;50.842;0.166;2022-10-26T07:22:09;16.00;99.90
15630;DHT22;7914;50.842;0.166;2022-10-26T07:24:34;16.00;99.90
15630;DHT22;7914;50.842;0.166;2022-10-26T07:27:00;16.00;99.90
15630;DHT22;7914;50.842;0.166;2022-10-26T07:29:26;16.00;99.90
15630;DHT22;7914;50.842;0.166;2022-10-26T07:31:52;16.00;99.90
15630;DHT22;7914;50.842;0.166;2022-10-26T07:34:17;16.00;99.90
15630;DHT22;7914;50.842;0.166;2022-10-26T07:36:43;16.10;99.90
15630;DHT22;7914;50.842;0.166;2022-10-26T07:39:09;16.20;99.90
15630;DHT22;7914;50.842;0.166;2022-10-26T07:41:34;16.30;99.90
15630;DHT22;7914;50.842;0.166;2022-10-26T07:44:00;16.40;99.90
15630;DHT22;7914;50.842;0.166;2022-10-26T07:46:26;16.40;99.90
15630;DHT22;7914;50.842;0.166;2022-10-26T07:48:52;16.50;99.90
15630;DHT22;7914;50.842;0.166;2022-10-26T07:51:18;16.60;99.90
15630;DHT22;7914;50.842;0.166;2022-10-26T07:53:45;16.70;99.90
15630;DHT22;7914;50.842;0.166;2022-10-26T07:56:11;16.80;99.90
15630;DHT22;7914;50.842;0.166;2022-10-26T07:58:37;16.90;99.90
15630;DHT22;7914;50.842;0.166;2022-10-26T08:01:21;17.00;99.90
15630;DHT22;7914;50.842;0.166;2022-10-26T08:03:47;17.00;99.90
15630;DHT22;7914;50.842;0.166;2022-10-26T08:06:13;17.20;99.90
15630;DHT22;7914;50.842;0.166;2022-10-26T08:08:38;17.20;99.90
15630;DHT22;7914;50.842;0.166;2022-10-26T08:11:05;17.30;99.90
15630;DHT22;7914;50.842;0.166;2022-10-26T08:13:30;17.50;99.90
15630;DHT22;7914;50.842;0.166;2022-10-26T08:15:58;17.60;99.90
15630;DHT22;7914;50.842;0.166;2022-10-26T08:18:24;17.80;99.90
15630;DHT22;7914;50.842;0.166;2022-10-26T08:20:49;17.90;99.90
15630;DHT22;7914;50.842;0.166;2022-10-26T08:23:15;18.00;99.90
15630;DHT22;7914;50.842;0.166;2022-10-26T08:25:41;18.00;99.90
15630;DHT22;7914;50.842;0.166;2022-10-26T08:28:07;17.90;99.90
15630;DHT22;7914;50.842;0.166;2022-10-26T08:30:32;17.90;99.90
15630;DHT22;7914;50.842;0.166;2022-10-26T08:33:03;17.80;99.90
15630;DHT22;7914;50.842;0.166;2022-10-26T08:35:30;17.80;99.90
15630;DHT22;7914;50.842;0.166;2022-10-26T08:37:55;17.80;99.90
15630;DHT22;7914;50.842;0.166;2022-10-26T08:40:25;17.80;99.90
15630;DHT22;7914;50.842;0.166;2022-10-26T08:43:15;17.80;99.90
15630;DHT22;7914;50.842;0.166;2022-10-26T08:46:04;17.80;99.90
15630;DHT22;7914;50.842;0.166;2022-10-26T08:48:43;17.90;99.90
15630;DHT22;7914;50.842;0.166;2022-10-26T08:51:20;18.00;99.90
15630;DHT22;7914;50.842;0.166;2022-10-26T08:56:34;18.40;99.90
15630;DHT22;7914;50.842;0.166;2022-10-26T09:01:33;18.50;99.90
15630;DHT22;7914;50.842;0.166;2022-10-26T09:04:02;18.50;99.90
15630;DHT22;7914;50.842;0.166;2022-10-26T09:09:25;18.70;99.90
15630;DHT22;7914;50.842;0.166;2022-10-26T09:14:53;18.80;99.90
15630;DHT22;7914;50.842;0.166;2022-10-26T09:22:25;18.60;99.90
15630;DHT22;7914;50.842;0.166;2022-10-26T09:24:56;18.60;99.90
15630;DHT22;7914;50.842;0.166;2022-10-26T09:27:29;18.70;99.90
15630;DHT22;7914;50.842;0.166;2022-10-26T09:29:59;18.80;99.90
15630;DHT22;7914;50.842;0.166;2022-10-26T09:32:30;19.00;99.90
15630;DHT22;7914;50.842;0.166;2022-10-26T09:35:03;19.00;99.90
15630;DHT22;7914;50.842;0.166;2022-10-26T09:37:42;19.00;99.90
15630;DHT22;7914;50.842;0.166;2022-10-26T09:43:11;19.10;99.90
15630;DHT22;7914;50.842;0.166;2022-10-26T09:45:42;19.10;99.90
15630;DHT22;7914;50.842;0.166;2022-10-26T09:48:20;19.10;99.90
15630;DHT22;7914;50.842;0.166;2022-10-26T09:50:48;19.00;99.90
15630;DHT22;7914;50.842;0.166;2022-10-26T09:53:14;18.90;99.90
15630;DHT22;7914;50.842;0.166;2022-10-26T09:55:45;19.00;99.90
15630;DHT22;7914;50.842;0.166;2022-10-26T09:58:25;19.20;99.90
15630;DHT22;7914;50.842;0.166;2022-10-26T10:00:52;19.30;99.90
15630;DHT22;7914;50.842;0.166;2022-10-26T10:03:19;19.30;99.90
15630;DHT22;7914;50.842;0.166;2022-10-26T10:05:45;19.30;99.90
15630;DHT22;7914;50.842;0.166;2022-10-26T10:08:24;19.40;99.90
15630;DHT22;7914;50.842;0.166;2022-10-26T10:13:26;19.60;99.90
15630;DHT22;7914;50.842;0.166;2022-10-26T10:16:20;19.60;99.90
15630;DHT22;7914;50.842;0.166;2022-10-26T10:18:53;19.60;99.90
15630;DHT22;7914;50.842;0.166;2022-10-26T10:21:19;19.60;99.90
15630;DHT22;7914;50.842;0.166;2022-10-26T10:23:50;19.60;99.90
15630;DHT22;7914;50.842;0.166;2022-10-26T10:26:17;19.60;99.90
15630;DHT22;7914;50.842;0.166;2022-10-26T10:28:58;19.70;99.90
15630;DHT22;7914;50.842;0.166;2022-10-26T10:31:29;19.70;99.90
15630;DHT22;7914;50.842;0.166;2022-10-26T10:33:55;19.70;99.90
15630;DHT22;7914;50.842;0.166;2022-10-26T10:36:27;19.70;99.90
15630;DHT22;7914;50.842;0.166;2022-10-26T10:38:56;19.60;99.90
15630;DHT22;7914;50.842;0.166;2022-10-26T10:41:31;19.60;99.90
15630;DHT22;7914;50.842;0.166;2022-10-26T10:46:47;19.70;99.90
15630;DHT22;7914;50.842;0.166;2022-10-26T10:49:19;19.60;99.90
15630;DHT22;7914;50.842;0.166;2022-10-26T10:51:46;19.70;99.90
15630;DHT22;7914;50.842;0.166;2022-10-26T10:56:56;19.80;99.90
15630;DHT22;7914;50.842;0.166;2022-10-26T11:06:59;19.80;99.90
15630;DHT22;7914;50.842;0.166;2022-10-26T11:09:29;19.90;99.90
15630;DHT22;7914;50.842;0.166;2022-10-26T11:15:05;19.90;99.90
15630;DHT22;7914;50.842;0.166;2022-10-26T11:17:44;19.80;99.90
15630;DHT22;7914;50.842;0.166;2022-10-26T11:20:15;19.90;99.90
15630;DHT22;7914;50.842;0.166;2022-10-26T11:25:29;19.80;99.90
15630;DHT22;7914;50.842;0.166;2022-10-26T11:30:56;20.20;99.90
15630;DHT22;7914;50.842;0.166;2022-10-26T11:33:29;20.30;99.90
15630;DHT22;7914;50.842;0.166;2022-10-26T11:36:08;20.30;99.90
15630;DHT22;7914;50.842;0.166;2022-10-26T11:38:48;20.30;99.90
15630;DHT22;7914;50.842;0.166;2022-10-26T11:41:42;20.30;99.90
15630;DHT22;7914;50.842;0.166;2022-10-26T11:44:28;20.20;99.90
15630;DHT22;7914;50.842;0.166;2022-10-26T11:47:03;20.20;99.90
15630;DHT22;7914;50.842;0.166;2022-10-26T11:49:53;20.10;99.90
15630;DHT22;7914;50.842;0.166;2022-10-26T11:52:38;20.00;99.90
15630;DHT22;7914;50.842;0.166;2022-10-26T11:55:09;19.90;99.90
15630;DHT22;7914;50.842;0.166;2022-10-26T11:57:36;19.90;99.90
15630;DHT22;7914;50.842;0.166;2022-10-26T12:00:13;19.80;99.90
15630;DHT22;7914;50.842;0.166;2022-10-26T12:02:41;19.80;99.90
15630;DHT22;7914;50.842;0.166;2022-10-26T12:07:51;19.80;99.90
15630;DHT22;7914;50.842;0.166;2022-10-26T12:10:28;19.80;99.90
15630;DHT22;7914;50.842;0.166;2022-10-26T12:15:41;19.70;99.90
15630;DHT22;7914;50.842;0.166;2022-10-26T12:18:20;19.70;99.90
15630;DHT22;7914;50.842;0.166;2022-10-26T12:21:06;19.70;99.90
15630;DHT22;7914;50.842;0.166;2022-10-26T12:23:37;19.70;99.90
15630;DHT22;7914;50.842;0.166;2022-10-26T12:29:11;19.70;99.90
15630;DHT22;7914;50.842;0.166;2022-10-26T12:34:14;19.70;99.90
15630;DHT22;7914;50.842;0.166;2022-10-26T12:39:40;19.60;99.90
15630;DHT22;7914;50.842;0.166;2022-10-26T12:42:27;19.60;99.90
15630;DHT22;7914;50.842;0.166;2022-10-26T13:00:32;19.40;99.90
15630;DHT22;7914;50.842;0.166;2022-10-26T13:08:05;19.30;99.90
15630;DHT22;7914;50.842;0.166;2022-10-26T13:10:32;19.30;99.90
15630;DHT22;7914;50.842;0.166;2022-10-26T13:13:03;19.20;99.90
15630;DHT22;7914;50.842;0.166;2022-10-26T13:15:37;19.10;99.90
15630;DHT22;7914;50.842;0.166;2022-10-26T13:18:09;19.10;99.90
15630;DHT22;7914;50.842;0.166;2022-10-26T13:20:52;19.10;99.90
15630;DHT22;7914;50.842;0.166;2022-10-26T13:23:26;19.10;99.90
15630;DHT22;7914;50.842;0.166;2022-10-26T13:26:09;19.00;99.90
15630;DHT22;7914;50.842;0.166;2022-10-26T13:33:50;19.00;99.90
15630;DHT22;7914;50.842;0.166;2022-10-26T13:37:23;19.00;99.90
15630;DHT22;7914;50.842;0.166;2022-10-26T13:39:27;19.00;99.90
15630;DHT22;7914;50.842;0.166;2022-10-26T13:41:55;19.00;99.90
15630;DHT22;7914;50.842;0.166;2022-10-26T13:44:39;19.00;99.90
15630;DHT22;7914;50.842;0.166;2022-10-26T13:47:14;19.00;99.90
15630;DHT22;7914;50.842;0.166;2022-10-26T13:49:44;18.90;99.90
15630;DHT22;7914;50.842;0.166;2022-10-26T13:52:18;18.90;99.90
15630;DHT22;7914;50.842;0.166;2022-10-26T13:54:53;18.90;99.90
15630;DHT22;7914;50.842;0.166;2022-10-26T13:57:28;18.90;99.90
15630;DHT22;7914;50.842;0.166;2022-10-26T13:59:57;18.80;99.90
15630;DHT22;7914;50.842;0.166;2022-10-26T14:02:25;18.80;99.90
15630;DHT22;7914;50.842;0.166;2022-10-26T14:04:53;18.80;99.90
15630;DHT22;7914;50.842;0.166;2022-10-26T14:07:28;18.80;99.90
15630;DHT22;7914;50.842;0.166;2022-10-26T14:09:56;18.70;99.90
15630;DHT22;7914;50.842;0.166;2022-10-26T14:12:26;18.70;99.90
15630;DHT22;7914;50.842;0.166;2022-10-26T14:15:07;18.60;99.90
15630;DHT22;7914;50.842;0.166;2022-10-26T14:17:33;18.60;99.90
15630;DHT22;7914;50.842;0.166;2022-10-26T14:20:00;18.50;99.90
15630;DHT22;7914;50.842;0.166;2022-10-26T14:22:28;18.50;99.90
15630;DHT22;7914;50.842;0.166;2022-10-26T14:24:58;18.50;99.90
15630;DHT22;7914;50.842;0.166;2022-10-26T14:27:30;18.60;99.90
15630;DHT22;7914;50.842;0.166;2022-10-26T14:29:56;18.40;99.90
15630;DHT22;7914;50.842;0.166;2022-10-26T14:32:29;18.40;99.90
15630;DHT22;7914;50.842;0.166;2022-10-26T14:34:56;18.30;99.90
15630;DHT22;7914;50.842;0.166;2022-10-26T14:38:04;18.30;99.90
15630;DHT22;7914;50.842;0.166;2022-10-26T14:40:34;18.20;99.90
15630;DHT22;7914;50.842;0.166;2022-10-26T14:43:02;18.10;99.90
15630;DHT22;7914;50.842;0.166;2022-10-26T14:45:37;18.20;99.90
15630;DHT22;7914;50.842;0.166;2022-10-26T14:48:05;18.20;99.90
15630;DHT22;7914;50.842;0.166;2022-10-26T14:50:32;18.20;99.90
15630;DHT22;7914;50.842;0.166;2022-10-26T14:53:28;18.20;99.90
15630;DHT22;7914;50.842;0.166;2022-10-26T14:55:55;18.20;99.90
15630;DHT22;7914;50.842;0.166;2022-10-26T14:58:31;18.10;99.90
15630;DHT22;7914;50.842;0.166;2022-10-26T15:01:44;18.10;99.90
15630;DHT22;7914;50.842;0.166;2022-10-26T15:04:32;18.10;99.90
15630;DHT22;7914;50.842;0.166;2022-10-26T15:09:38;18.10;99.90
15630;DHT22;7914;50.842;0.166;2022-10-26T15:12:05;18.10;99.90
15630;DHT22;7914;50.842;0.166;2022-10-26T15:14:32;18.10;99.90
15630;DHT22;7914;50.842;0.166;2022-10-26T15:16:59;18.10;99.90
15630;DHT22;7914;50.842;0.166;2022-10-26T15:19:25;18.00;99.90
15630;DHT22;7914;50.842;0.166;2022-10-26T15:21:52;18.00;99.90
15630;DHT22;7914;50.842;0.166;2022-10-26T15:24:38;18.00;99.90
15630;DHT22;7914;50.842;0.166;2022-10-26T15:27:11;17.90;99.90
15630;DHT22;7914;50.842;0.166;2022-10-26T15:29:42;17.90;99.90
15630;DHT22;7914;50.842;0.166;2022-10-26T15:32:26;17.90;99.90
15630;DHT22;7914;50.842;0.166;2022-10-26T15:35:12;17.90;99.90
15630;DHT22;7914;50.842;0.166;2022-10-26T15:37:38;17.80;99.90
15630;DHT22;7914;50.842;0.166;2022-10-26T15:40:04;17.70;99.90
15630;DHT22;7914;50.842;0.166;2022-10-26T15:42:30;17.80;99.90
15630;DHT22;7914;50.842;0.166;2022-10-26T15:44:57;17.60;99.90
15630;DHT22;7914;50.842;0.166;2022-10-26T15:47:28;17.60;99.90
15630;DHT22;7914;50.842;0.166;2022-10-26T15:49:54;17.60;99.90
15630;DHT22;7914;50.842;0.166;2022-10-26T15:52:20;17.50;99.90
15630;DHT22;7914;50.842;0.166;2022-10-26T15:54:46;17.50;99.90
15630;DHT22;7914;50.842;0.166;2022-10-26T15:57:13;17.40;99.90
15630;DHT22;7914;50.842;0.166;2022-10-26T15:59:39;17.40;99.90
15630;DHT22;7914;50.842;0.166;2022-10-26T16:02:13;17.40;99.90
15630;DHT22;7914;50.842;0.166;2022-10-26T16:04:39;17.40;99.90
15630;DHT22;7914;50.842;0.166;2022-10-26T16:07:05;17.30;99.90
15630;DHT22;7914;50.842;0.166;2022-10-26T16:09:32;17.30;99.90
15630;DHT22;7914;50.842;0.166;2022-10-26T16:11:57;17.30;99.90
15630;DHT22;7914;50.842;0.166;2022-10-26T16:14:23;17.30;99.90
15630;DHT22;7914;50.842;0.166;2022-10-26T16:16:49;17.20;99.90
15630;DHT22;7914;50.842;0.166;2022-10-26T16:19:14;17.20;99.90
15630;DHT22;7914;50.842;0.166;2022-10-26T16:21:40;17.20;99.90
15630;DHT22;7914;50.842;0.166;2022-10-26T16:24:06;17.10;99.90
15630;DHT22;7914;50.842;0.166;2022-10-26T16:26:32;17.10;99.90
15630;DHT22;7914;50.842;0.166;2022-10-26T16:28:58;17.00;99.90
15630;DHT22;7914;50.842;0.166;2022-10-26T16:31:23;17.00;99.90
15630;DHT22;7914;50.842;0.166;2022-10-26T16:33:49;17.00;99.90
15630;DHT22;7914;50.842;0.166;2022-10-26T16:36:15;16.90;99.90
15630;DHT22;7914;50.842;0.166;2022-10-26T16:38:41;16.90;99.90
15630;DHT22;7914;50.842;0.166;2022-10-26T16:41:14;16.90;99.90
15630;DHT22;7914;50.842;0.166;2022-10-26T16:43:42;16.90;99.90
15630;DHT22;7914;50.842;0.166;2022-10-26T16:46:19;16.90;99.90
15630;DHT22;7914;50.842;0.166;2022-10-26T16:48:47;16.80;99.90
15630;DHT22;7914;50.842;0.166;2022-10-26T16:51:21;16.80;99.90
15630;DHT22;7914;50.842;0.166;2022-10-26T16:53:49;16.80;99.90
15630;DHT22;7914;50.842;0.166;2022-10-26T16:56:23;16.80;99.90
15630;DHT22;7914;50.842;0.166;2022-10-26T16:58:49;16.80;99.90
15630;DHT22;7914;50.842;0.166;2022-10-26T17:01:15;16.70;99.90
15630;DHT22;7914;50.842;0.166;2022-10-26T17:03:49;16.70;99.90
15630;DHT22;7914;50.842;0.166;2022-10-26T17:06:15;16.70;99.90
15630;DHT22;7914;50.842;0.166;2022-10-26T17:08:41;16.70;99.90
15630;DHT22;7914;50.842;0.166;2022-10-26T17:11:10;16.70;99.90
15630;DHT22;7914;50.842;0.166;2022-10-26T17:13:37;16.60;99.90
15630;DHT22;7914;50.842;0.166;2022-10-26T17:16:05;16.60;99.90
15630;DHT22;7914;50.842;0.166;2022-10-26T17:18:32;16.60;99.90
15630;DHT22;7914;50.842;0.166;2022-10-26T17:20:57;16.50;99.90
15630;DHT22;7914;50.842;0.166;2022-10-26T17:23:24;16.50;99.90
15630;DHT22;7914;50.842;0.166;2022-10-26T17:25:49;16.50;99.90
15630;DHT22;7914;50.842;0.166;2022-10-26T17:28:15;16.50;99.90
15630;DHT22;7914;50.842;0.166;2022-10-26T17:30:41;16.50;99.90
15630;DHT22;7914;50.842;0.166;2022-10-26T17:33:07;16.50;99.90
15630;DHT22;7914;50.842;0.166;2022-10-26T17:35:33;16.50;99.90
15630;DHT22;7914;50.842;0.166;2022-10-26T17:37:59;16.50;99.90
15630;DHT22;7914;50.842;0.166;2022-10-26T17:40:25;16.50;99.90
15630;DHT22;7914;50.842;0.166;2022-10-26T17:42:51;16.50;99.90
15630;DHT22;7914;50.842;0.166;2022-10-26T17:45:17;16.50;99.90
15630;DHT22;7914;50.842;0.166;2022-10-26T17:47:43;16.50;99.90
15630;DHT22;7914;50.842;0.166;2022-10-26T17:50:09;16.50;99.90
15630;DHT22;7914;50.842;0.166;2022-10-26T17:52:35;16.50;99.90
15630;DHT22;7914;50.842;0.166;2022-10-26T17:55:00;16.50;99.90
15630;DHT22;7914;50.842;0.166;2022-10-26T17:57:26;16.60;99.90
15630;DHT22;7914;50.842;0.166;2022-10-26T17:59:52;16.60;99.90
15630;DHT22;7914;50.842;0.166;2022-10-26T18:02:17;16.60;99.90